Time;durP1;ratioP1;P1;durP2;ratioP2;P2;SDS_P1;SDS_P2;PMS_P1;PMS_P2;Temp;Humidity;BMP_temperature;BMP_pressure;BME280_temperature;BME280_humidity;BME280_pressure;Samples;Min_cycle;Max_cycle;Signal;HPM_P1;HPM_P2
2021/03/23 00:02:01;;;;;;;22.35;7.22;;;;;;;;;;5092787;28;20024;-53
2021/03/23 00:04:27;;;;;;;16.55;6.57;;;;;;;;;;5093179;28;20024;-54
2021/03/23 00:06:53;;;;;;;18.38;6.85;;;;;;;;;;5093091;28;20330;-54
2021/03/23 00:09:19;;;;;;;13.70;6.13;;;;;;;;;;5092643;28;20036;-54
2021/03/23 00:11:45;;;;;;;14.45;6.15;;;;;;;;;;5092995;28;20082;-54
2021/03/23 00:14:13;;;;;;;14.23;5.93;;;;;;;;;;5095908;28;20024;-53
2021/03/23 00:16:43;;;;;;;17.80;6.72;;;;;;;;;;5096882;28;20035;-54
2021/03/23 00:19:10;;;;;;;16.75;6.18;;;;;;;;;;5096687;28;20027;-53
2021/03/23 00:21:36;;;;;;;23.20;7.40;;;;;;;;;;5096418;28;20127;-53
2021/03/23 00:24:02;;;;;;;16.60;6.63;;;;;;;;;;5096974;28;20026;-53
2021/03/23 00:26:28;;;;;;;16.90;6.38;;;;;;;;;;5096612;28;20071;-54
2021/03/23 00:28:55;;;;;;;17.23;7.97;;;;;;;;;;5095926;28;20044;-53
2021/03/23 00:31:23;;;;;;;18.05;7.00;;;;;;;;;;5096290;28;20454;-53
2021/03/23 00:33:49;;;;;;;17.83;6.50;;;;;;;;;;5096497;28;20036;-53
2021/03/23 00:36:17;;;;;;;19.98;6.90;;;;;;;;;;5096309;28;20457;-54
2021/03/23 00:38:43;;;;;;;25.65;6.93;;;;;;;;;;5095826;28;20346;-54
2021/03/23 00:41:09;;;;;;;20.70;7.22;;;;;;;;;;5096426;28;20050;-53
2021/03/23 00:43:39;;;;;;;16.08;7.13;;;;;;;;;;5095843;28;20085;-54
2021/03/23 00:46:06;;;;;;;24.80;6.90;;;;;;;;;;5096341;28;20307;-54
2021/03/23 00:48:32;;;;;;;19.20;7.72;;;;;;;;;;5095992;28;20050;-54
2021/03/23 00:50:58;;;;;;;18.30;6.78;;;;;;;;;;5096264;28;20024;-53
2021/03/23 00:53:24;;;;;;;19.23;6.97;;;;;;;;;;5095775;28;20477;-54
2021/03/23 00:55:51;;;;;;;18.13;6.93;;;;;;;;;;5096081;28;20065;-54
2021/03/23 00:58:17;;;;;;;19.08;7.43;;;;;;;;;;5095387;28;20059;-54
2021/03/23 01:00:43;;;;;;;15.73;7.03;;;;;;;;;;5096101;28;20031;-53
2021/03/23 01:03:09;;;;;;;15.88;6.88;;;;;;;;;;5095940;28;20042;-54
2021/03/23 01:05:35;;;;;;;21.45;7.35;;;;;;;;;;5095775;28;20446;-53
2021/03/23 01:08:02;;;;;;;16.42;6.97;;;;;;;;;;5095335;28;20028;-53
2021/03/23 01:10:29;;;;;;;17.35;7.40;;;;;;;;;;5095743;28;20340;-53
2021/03/23 01:12:55;;;;;;;18.40;7.10;;;;;;;;;;5095397;28;20054;-53
2021/03/23 01:15:24;;;;;;;16.50;6.65;;;;;;;;;;5095626;28;20028;-54
2021/03/23 01:17:50;;;;;;;17.33;6.53;;;;;;;;;;5095503;28;20031;-53
2021/03/23 01:20:18;;;;;;;17.88;6.25;;;;;;;;;;5095652;28;20031;-53
2021/03/23 01:22:44;;;;;;;26.40;7.97;;;;;;;;;;5095278;28;20492;-54
2021/03/23 01:25:10;;;;;;;22.55;7.70;;;;;;;;;;5094406;28;20107;-54
2021/03/23 01:27:36;;;;;;;21.77;8.02;;;;;;;;;;5094542;28;20036;-53
2021/03/23 01:30:04;;;;;;;16.50;6.30;;;;;;;;;;5095619;28;20450;-53
2021/03/23 01:32:30;;;;;;;12.27;6.47;;;;;;;;;;5095207;28;20050;-53
2021/03/23 01:34:55;;;;;;;19.02;6.63;;;;;;;;;;5095312;28;20028;-54
2021/03/23 01:37:22;;;;;;;16.88;7.15;;;;;;;;;;5095050;28;20024;-54
2021/03/23 01:39:48;;;;;;;22.27;7.63;;;;;;;;;;5095069;28;20024;-53
2021/03/23 01:42:15;;;;;;;23.00;7.05;;;;;;;;;;5094690;28;20116;-54
2021/03/23 01:44:42;;;;;;;21.02;8.27;;;;;;;;;;5095019;28;20454;-53
2021/03/23 01:47:08;;;;;;;17.90;6.88;;;;;;;;;;5094813;28;20035;-54
2021/03/23 01:49:39;;;;;;;17.42;6.28;;;;;;;;;;5094894;28;20024;-54
2021/03/23 01:52:16;;;;;;;17.50;4.95;;;;;;;;;;5094938;28;20449;-53
2021/03/23 01:54:55;;;;;;;15.40;5.70;;;;;;;;;;5094132;28;20028;-53
2021/03/23 01:57:21;;;;;;;20.65;7.32;;;;;;;;;;5094644;28;20031;-53
2021/03/23 01:59:50;;;;;;;17.73;7.25;;;;;;;;;;5094878;28;20020;-54
2021/03/23 02:02:17;;;;;;;16.10;6.72;;;;;;;;;;5094728;28;20028;-53
2021/03/23 02:04:43;;;;;;;21.35;7.22;;;;;;;;;;5094655;28;20052;-54
2021/03/23 02:07:09;;;;;;;16.35;6.30;;;;;;;;;;5094087;28;20468;-53
2021/03/23 02:09:36;;;;;;;19.40;6.80;;;;;;;;;;5094780;28;20028;-53
2021/03/23 02:12:03;;;;;;;20.10;7.00;;;;;;;;;;5094493;28;20027;-53
2021/03/23 02:14:32;;;;;;;18.88;6.97;;;;;;;;;;5094320;28;20450;-54
2021/03/23 02:17:33;;;;;;;19.13;7.97;;;;;;;;;;5094488;28;20031;-54
2021/03/23 02:20:01;;;;;;;17.73;6.97;;;;;;;;;;5071465;28;20343;-54
2021/03/23 02:22:28;;;;;;;18.73;7.10;;;;;;;;;;5064516;28;20036;-54
2021/03/23 02:24:54;;;;;;;17.50;6.13;;;;;;;;;;5051599;28;20112;-54
2021/03/23 02:27:21;;;;;;;12.73;5.90;;;;;;;;;;5051274;28;20040;-54
2021/03/23 02:29:47;;;;;;;15.68;6.05;;;;;;;;;;5051363;28;20052;-53
2021/03/23 02:32:13;;;;;;;20.13;7.20;;;;;;;;;;5051400;28;20040;-54
2021/03/23 02:34:39;;;;;;;19.25;7.88;;;;;;;;;;5051116;28;20056;-53
2021/03/23 02:37:05;;;;;;;13.00;6.32;;;;;;;;;;5050746;28;20361;-53
2021/03/23 02:39:33;;;;;;;18.20;7.93;;;;;;;;;;5051371;28;20021;-54
2021/03/23 02:41:59;;;;;;;19.33;7.65;;;;;;;;;;5057103;28;20044;-54
2021/03/23 02:44:26;;;;;;;19.25;6.68;;;;;;;;;;5070980;28;20077;-53
2021/03/23 02:46:52;;;;;;;25.52;7.60;;;;;;;;;;5070988;28;20072;-53
2021/03/23 02:49:18;;;;;;;19.85;7.38;;;;;;;;;;5070972;28;20074;-54
2021/03/23 02:51:48;;;;;;;28.38;7.45;;;;;;;;;;5071302;28;20509;-53
2021/03/23 02:54:14;;;;;;;23.75;7.28;;;;;;;;;;5085405;28;20032;-54
2021/03/23 02:56:40;;;;;;;28.38;6.63;;;;;;;;;;5093653;28;20092;-54
2021/03/23 02:59:06;;;;;;;20.63;7.30;;;;;;;;;;5093293;28;20031;-54
2021/03/23 03:01:32;;;;;;;22.02;6.97;;;;;;;;;;5093904;28;20028;-54
2021/03/23 03:03:58;;;;;;;20.08;7.63;;;;;;;;;;5088648;28;20110;-54
2021/03/23 03:06:24;;;;;;;20.23;7.63;;;;;;;;;;5093240;28;20176;-54
2021/03/23 03:08:50;;;;;;;17.95;7.70;;;;;;;;;;5093274;28;20129;-54
2021/03/23 03:11:16;;;;;;;14.00;6.70;;;;;;;;;;5093641;28;20051;-55
2021/03/23 03:13:42;;;;;;;27.48;7.53;;;;;;;;;;5093320;28;20024;-54
2021/03/23 03:16:08;;;;;;;19.30;7.78;;;;;;;;;;5093593;28;20020;-54
2021/03/23 03:18:34;;;;;;;25.73;7.90;;;;;;;;;;5093032;28;20445;-54
2021/03/23 03:21:00;;;;;;;20.88;7.70;;;;;;;;;;5093238;28;20038;-55
2021/03/23 03:23:27;;;;;;;19.70;8.15;;;;;;;;;;5109206;28;20024;-54
2021/03/23 03:25:53;;;;;;;26.52;8.15;;;;;;;;;;5113727;28;20031;-54
2021/03/23 03:28:20;;;;;;;19.27;7.40;;;;;;;;;;5113148;28;20036;-55
2021/03/23 03:30:46;;;;;;;17.40;6.40;;;;;;;;;;5113638;28;20460;-54
2021/03/23 03:33:15;;;;;;;21.30;7.82;;;;;;;;;;5113373;28;20092;-54
2021/03/23 03:35:42;;;;;;;17.70;6.95;;;;;;;;;;5113642;28;20039;-54
2021/03/23 03:38:09;;;;;;;21.58;8.23;;;;;;;;;;5113286;28;20368;-55
2021/03/23 03:40:39;;;;;;;19.65;7.03;;;;;;;;;;5113558;28;20452;-54
2021/03/23 03:43:06;;;;;;;16.13;6.38;;;;;;;;;;5113222;28;20422;-55
2021/03/23 03:45:32;;;;;;;19.42;8.07;;;;;;;;;;5113686;28;20027;-54
2021/03/23 03:47:58;;;;;;;20.60;8.38;;;;;;;;;;5113949;28;20027;-55
2021/03/23 03:50:26;;;;;;;21.02;8.45;;;;;;;;;;5117633;28;20491;-54
2021/03/23 03:52:52;;;;;;;22.17;7.38;;;;;;;;;;5117493;28;20449;-54
2021/03/23 03:55:19;;;;;;;23.63;7.82;;;;;;;;;;5117641;28;20093;-54
2021/03/23 03:57:45;;;;;;;21.15;7.97;;;;;;;;;;5117079;28;20123;-54
2021/03/23 04:00:12;;;;;;;24.67;7.93;;;;;;;;;;5105433;28;20095;-54
2021/03/23 04:02:38;;;;;;;19.35;7.65;;;;;;;;;;5105353;28;20023;-54
2021/03/23 04:05:05;;;;;;;17.17;7.28;;;;;;;;;;5095650;28;20024;-54
2021/03/23 04:07:32;;;;;;;19.88;6.60;;;;;;;;;;5096653;28;20054;-54
2021/03/23 04:09:58;;;;;;;21.00;8.43;;;;;;;;;;5096415;28;20020;-54
2021/03/23 04:12:24;;;;;;;20.17;7.45;;;;;;;;;;5097176;28;20028;-54
2021/03/23 04:14:50;;;;;;;18.05;7.55;;;;;;;;;;5096748;28;20020;-54
2021/03/23 04:17:16;;;;;;;26.75;8.07;;;;;;;;;;5096491;28;20465;-54
2021/03/23 04:19:42;;;;;;;24.38;9.18;;;;;;;;;;5096563;28;20480;-54
2021/03/23 04:22:08;;;;;;;21.92;7.53;;;;;;;;;;5101234;28;20031;-55
2021/03/23 04:24:34;;;;;;;18.90;7.45;;;;;;;;;;5116804;27;20331;-54
2021/03/23 04:27:00;;;;;;;19.50;7.20;;;;;;;;;;5116630;28;20024;-54
2021/03/23 04:29:26;;;;;;;20.85;7.82;;;;;;;;;;5117045;28;20015;-55
2021/03/23 04:31:52;;;;;;;24.85;8.38;;;;;;;;;;5116962;28;20159;-54
2021/03/23 04:34:18;;;;;;;22.77;6.97;;;;;;;;;;5117051;28;20052;-54
2021/03/23 04:36:44;;;;;;;24.98;7.95;;;;;;;;;;5116601;28;20031;-54
2021/03/23 04:39:11;;;;;;;22.98;8.52;;;;;;;;;;5116254;28;20027;-54
2021/03/23 04:41:38;;;;;;;25.65;8.82;;;;;;;;;;5116762;28;20024;-55
2021/03/23 04:44:04;;;;;;;24.30;7.80;;;;;;;;;;5116688;28;20024;-54
2021/03/23 04:46:30;;;;;;;20.83;7.93;;;;;;;;;;5116436;28;20028;-54
2021/03/23 04:48:57;;;;;;;34.80;8.48;;;;;;;;;;5116333;28;20047;-54
2021/03/23 04:51:24;;;;;;;16.73;7.43;;;;;;;;;;5116351;28;20471;-54
2021/03/23 04:53:51;;;;;;;25.40;8.25;;;;;;;;;;5116278;28;20108;-54
2021/03/23 04:56:21;;;;;;;24.77;8.27;;;;;;;;;;5116322;28;20020;-54
2021/03/23 04:58:47;;;;;;;19.98;8.43;;;;;;;;;;5115949;28;20023;-55
2021/03/23 05:01:14;;;;;;;24.17;7.40;;;;;;;;;;5116577;28;20030;-54
2021/03/23 05:03:40;;;;;;;20.55;8.93;;;;;;;;;;5116393;28;20059;-54
2021/03/23 05:06:08;;;;;;;25.30;7.68;;;;;;;;;;5115978;28;20020;-55
2021/03/23 05:08:35;;;;;;;23.70;9.13;;;;;;;;;;5115675;28;20043;-54
2021/03/23 05:11:01;;;;;;;21.50;7.55;;;;;;;;;;5116125;28;20107;-54
2021/03/23 05:13:27;;;;;;;21.92;9.27;;;;;;;;;;5116303;28;20051;-54
2021/03/23 05:15:53;;;;;;;25.75;8.40;;;;;;;;;;5116218;28;20020;-55
2021/03/23 05:18:19;;;;;;;24.60;10.07;;;;;;;;;;5115599;28;20072;-54
2021/03/23 05:20:45;;;;;;;33.20;10.32;;;;;;;;;;5115622;28;20077;-54
2021/03/23 05:23:12;;;;;;;30.23;10.20;;;;;;;;;;5115948;28;20099;-54
2021/03/23 05:25:38;;;;;;;21.98;8.57;;;;;;;;;;5115826;28;20035;-54
2021/03/23 05:28:04;;;;;;;18.55;7.30;;;;;;;;;;5115445;28;20040;-54
2021/03/23 05:30:31;;;;;;;21.85;8.90;;;;;;;;;;5106294;28;20442;-55
2021/03/23 05:32:57;;;;;;;21.25;8.82;;;;;;;;;;5107012;28;20020;-54
2021/03/23 05:35:23;;;;;;;22.08;9.15;;;;;;;;;;5115978;27;20425;-54
2021/03/23 05:37:49;;;;;;;23.13;8.77;;;;;;;;;;5115154;28;20024;-54
2021/03/23 05:40:20;;;;;;;26.23;8.88;;;;;;;;;;5115768;28;20027;-54
2021/03/23 05:42:48;;;;;;;26.23;9.38;;;;;;;;;;5114800;28;20453;-54
2021/03/23 05:45:17;;;;;;;31.42;9.07;;;;;;;;;;5114849;28;20024;-54
2021/03/23 05:47:43;;;;;;;25.52;9.30;;;;;;;;;;5114427;28;20031;-55
2021/03/23 05:50:12;;;;;;;29.90;11.07;;;;;;;;;;5115439;28;20096;-54
2021/03/23 05:52:54;;;;;;;24.25;9.20;;;;;;;;;;5115413;28;20027;-54
2021/03/23 05:55:26;;;;;;;26.02;8.23;;;;;;;;;;5097172;27;20028;-54
2021/03/23 05:57:52;;;;;;;18.42;7.70;;;;;;;;;;5094302;28;20361;-54
2021/03/23 06:00:29;;;;;;;20.27;7.85;;;;;;;;;;5102759;28;20011;-54
2021/03/23 06:03:14;;;;;;;25.38;8.80;;;;;;;;;;5113458;28;20076;-54
2021/03/23 06:05:45;;;;;;;25.15;9.25;;;;;;;;;;5103048;28;20046;-54
2021/03/23 06:08:17;;;;;;;25.00;9.50;;;;;;;;;;5102598;28;20020;-54
2021/03/23 06:10:43;;;;;;;21.83;8.77;;;;;;;;;;5093609;28;20057;-55
2021/03/23 06:13:18;;;;;;;22.00;9.23;;;;;;;;;;5094293;28;20403;-54
2021/03/23 06:15:51;;;;;;;28.02;9.02;;;;;;;;;;5094485;28;20464;-54
2021/03/23 06:18:19;;;;;;;19.17;8.30;;;;;;;;;;5094082;28;20441;-54
2021/03/23 06:20:54;;;;;;;23.85;9.10;;;;;;;;;;5109860;28;20468;-54
2021/03/23 06:23:23;;;;;;;19.60;9.18;;;;;;;;;;5099273;28;20111;-54
2021/03/23 06:25:59;;;;;;;27.02;8.80;;;;;;;;;;5094228;28;20016;-54
2021/03/23 06:28:41;;;;;;;27.00;9.55;;;;;;;;;;5093697;28;20421;-54
2021/03/23 06:31:20;;;;;;;31.98;10.00;;;;;;;;;;5094180;28;20024;-54
2021/03/23 06:33:46;;;;;;;23.30;9.65;;;;;;;;;;5093748;28;20016;-54
2021/03/23 06:36:23;;;;;;;21.75;9.85;;;;;;;;;;5093876;28;20427;-54
2021/03/23 06:38:49;;;;;;;27.63;9.73;;;;;;;;;;5093899;28;20070;-54
2021/03/23 06:41:24;;;;;;;29.33;9.55;;;;;;;;;;5094185;28;20028;-54
2021/03/23 06:43:55;;;;;;;20.58;7.63;;;;;;;;;;5093713;28;20028;-54
2021/03/23 06:46:24;;;;;;;23.80;8.40;;;;;;;;;;5093460;28;20060;-54
2021/03/23 06:49:05;;;;;;;28.02;9.13;;;;;;;;;;5100264;28;20114;-54
2021/03/23 06:51:32;;;;;;;18.17;7.95;;;;;;;;;;5113020;28;20115;-55
2021/03/23 06:54:10;;;;;;;23.10;9.68;;;;;;;;;;5112634;28;20020;-54
2021/03/23 06:56:36;;;;;;;21.77;9.13;;;;;;;;;;5113711;28;20115;-55
2021/03/23 06:59:05;;;;;;;22.80;9.48;;;;;;;;;;5112468;28;20111;-54
2021/03/23 07:01:39;;;;;;;28.83;8.00;;;;;;;;;;5114187;28;20034;-54
2021/03/23 07:04:17;;;;;;;19.98;9.00;;;;;;;;;;5113826;28;20023;-54
2021/03/23 07:06:44;;;;;;;25.35;9.88;;;;;;;;;;5113842;28;20118;-54
2021/03/23 07:09:10;;;;;;;25.83;8.50;;;;;;;;;;5113307;28;20107;-55
2021/03/23 07:11:50;;;;;;;25.52;9.77;;;;;;;;;;5113898;28;20055;-54
2021/03/23 07:14:34;;;;;;;32.08;9.80;;;;;;;;;;5113748;28;20023;-54
2021/03/23 07:17:09;;;;;;;22.50;8.60;;;;;;;;;;5113368;28;20044;-54
2021/03/23 07:19:58;;;;;;;30.73;9.25;;;;;;;;;;5113191;28;20092;-54
2021/03/23 07:22:33;;;;;;;25.48;8.77;;;;;;;;;;5113699;28;20027;-54
2021/03/23 07:24:59;;;;;;;20.23;8.30;;;;;;;;;;5113895;28;20020;-54
2021/03/23 07:27:30;;;;;;;22.05;8.85;;;;;;;;;;5113131;28;20036;-54
2021/03/23 07:30:12;;;;;;;24.02;9.13;;;;;;;;;;5113424;28;20455;-54
2021/03/23 07:32:42;;;;;;;23.63;8.48;;;;;;;;;;5113649;28;20026;-54
2021/03/23 07:35:08;;;;;;;27.17;9.35;;;;;;;;;;5113737;28;20018;-54
2021/03/23 07:37:40;;;;;;;27.23;9.43;;;;;;;;;;5112058;28;20353;-54
2021/03/23 07:40:15;;;;;;;26.98;9.35;;;;;;;;;;5113564;28;20030;-54
2021/03/23 07:42:46;;;;;;;30.50;9.32;;;;;;;;;;5113214;28;20477;-54
2021/03/23 07:45:28;;;;;;;25.15;9.95;;;;;;;;;;5113662;28;20072;-54
2021/03/23 07:48:10;;;;;;;20.42;6.68;;;;;;;;;;5112947;28;20036;-54
2021/03/23 07:50:38;;;;;;;33.53;10.50;;;;;;;;;;5093087;28;20108;-54
2021/03/23 07:53:23;;;;;;;27.17;9.23;;;;;;;;;;5092200;28;20024;-54
2021/03/23 07:55:50;;;;;;;35.70;10.60;;;;;;;;;;5092822;28;20028;-54
2021/03/23 07:58:28;;;;;;;29.00;10.35;;;;;;;;;;5092803;28;20047;-54
2021/03/23 08:01:13;;;;;;;27.13;8.98;;;;;;;;;;5093229;28;20020;-54
2021/03/23 08:03:39;;;;;;;25.15;8.50;;;;;;;;;;5092549;28;20032;-54
2021/03/23 08:06:24;;;;;;;26.88;9.63;;;;;;;;;;5095449;28;20234;-54
2021/03/23 08:08:53;;;;;;;23.35;9.27;;;;;;;;;;5101416;28;20308;-54
2021/03/23 08:11:22;;;;;;;31.02;9.38;;;;;;;;;;5092842;28;20111;-54
2021/03/23 08:14:15;;;;;;;30.00;10.30;;;;;;;;;;5093818;28;20099;-54
2021/03/23 08:17:14;;;;;;;27.73;8.98;;;;;;;;;;5099665;28;20032;-54
2021/03/23 08:19:46;;;;;;;26.65;9.43;;;;;;;;;;5090636;28;20131;-54
2021/03/23 08:22:14;;;;;;;26.08;9.77;;;;;;;;;;5093467;28;20024;-55
2021/03/23 08:24:56;;;;;;;23.48;8.93;;;;;;;;;;5092627;28;20032;-54
2021/03/23 08:27:22;;;;;;;25.20;9.15;;;;;;;;;;5102984;28;20126;-54
2021/03/23 08:30:01;;;;;;;26.05;8.32;;;;;;;;;;5112960;28;20417;-54
2021/03/23 08:32:41;;;;;;;25.05;8.55;;;;;;;;;;5112532;28;20034;-55
2021/03/23 08:35:19;;;;;;;22.95;9.02;;;;;;;;;;5114474;28;20055;-54
2021/03/23 08:37:54;;;;;;;25.17;9.73;;;;;;;;;;5102946;28;20566;-54
2021/03/23 08:40:29;;;;;;;18.65;7.07;;;;;;;;;;5096351;28;20107;-54
2021/03/23 08:42:56;;;;;;;28.95;10.55;;;;;;;;;;5095716;28;20450;-54
2021/03/23 08:45:28;;;;;;;20.67;8.65;;;;;;;;;;5109107;28;20036;-54
2021/03/23 08:47:59;;;;;;;30.75;8.32;;;;;;;;;;5108210;28;20090;-54
2021/03/23 08:50:39;;;;;;;15.80;6.63;;;;;;;;;;5116434;28;20030;-54
2021/03/23 08:53:25;;;;;;;27.73;9.63;;;;;;;;;;5116519;28;20035;-54
2021/03/23 08:55:51;;;;;;;23.92;8.45;;;;;;;;;;5111344;28;20567;-54
2021/03/23 08:58:19;;;;;;;18.17;7.45;;;;;;;;;;5104726;28;20082;-54
2021/03/23 09:00:50;;;;;;;25.17;7.18;;;;;;;;;;5095741;28;20376;-54
2021/03/23 09:03:16;;;;;;;20.63;8.32;;;;;;;;;;5095899;28;20361;-54
2021/03/23 09:05:52;;;;;;;23.83;9.10;;;;;;;;;;5097376;28;20081;-54
2021/03/23 09:08:21;;;;;;;21.40;9.32;;;;;;;;;;5115788;28;20036;-54
2021/03/23 09:10:52;;;;;;;25.27;9.95;;;;;;;;;;5108116;28;20327;-54
2021/03/23 09:13:39;;;;;;;23.88;8.75;;;;;;;;;;5094489;28;20666;-54
2021/03/23 09:16:10;;;;;;;22.40;9.32;;;;;;;;;;5095606;28;20030;-55
2021/03/23 09:18:37;;;;;;;23.30;8.10;;;;;;;;;;5107948;28;20452;-54
2021/03/23 09:21:10;;;;;;;26.77;9.52;;;;;;;;;;5106885;28;20090;-54
2021/03/23 09:23:40;;;;;;;13.93;6.20;;;;;;;;;;5103217;28;20039;-54
2021/03/23 09:26:25;;;;;;;18.85;8.52;;;;;;;;;;5096833;28;20019;-54
2021/03/23 09:28:53;;;;;;;20.63;8.52;;;;;;;;;;5097116;28;20042;-54
2021/03/23 09:31:25;;;;;;;21.15;7.93;;;;;;;;;;5103490;28;20015;-54
2021/03/23 09:33:52;;;;;;;20.90;8.60;;;;;;;;;;5108336;28;20015;-54
2021/03/23 09:36:24;;;;;;;19.38;7.50;;;;;;;;;;5108372;27;20108;-54
2021/03/23 09:38:54;;;;;;;24.17;7.07;;;;;;;;;;5110317;28;20062;-54
2021/03/23 09:41:20;;;;;;;17.33;7.70;;;;;;;;;;5099318;28;20024;-54
2021/03/23 09:43:47;;;;;;;25.02;7.90;;;;;;;;;;5108385;28;20050;-54
2021/03/23 09:46:15;;;;;;;26.88;10.05;;;;;;;;;;5099956;28;20024;-54
2021/03/23 09:48:52;;;;;;;15.50;5.93;;;;;;;;;;5104785;28;20424;-54
2021/03/23 09:51:18;;;;;;;27.90;9.52;;;;;;;;;;5102457;28;20031;-54
2021/03/23 09:53:44;;;;;;;24.02;8.77;;;;;;;;;;5102992;28;20024;-54
2021/03/23 09:56:21;;;;;;;20.83;7.63;;;;;;;;;;5097462;28;20059;-54
2021/03/23 09:58:56;;;;;;;23.08;9.32;;;;;;;;;;5098381;28;20557;-54
2021/03/23 10:01:23;;;;;;;20.88;8.23;;;;;;;;;;5099583;28;20353;-54
2021/03/23 10:03:51;;;;;;;22.27;8.07;;;;;;;;;;5102470;28;20077;-54
2021/03/23 10:06:19;;;;;;;17.05;6.72;;;;;;;;;;5106623;28;20027;-54
2021/03/23 10:08:51;;;;;;;22.00;8.52;;;;;;;;;;5104941;28;20111;-55
2021/03/23 10:11:18;;;;;;;18.73;7.78;;;;;;;;;;5099735;28;20028;-54
2021/03/23 10:13:48;;;;;;;20.15;8.05;;;;;;;;;;5100451;28;20052;-54
2021/03/23 10:16:25;;;;;;;24.80;7.82;;;;;;;;;;5111045;28;20353;-54
2021/03/23 10:18:51;;;;;;;22.27;8.35;;;;;;;;;;5102253;28;20016;-54
2021/03/23 10:21:18;;;;;;;22.70;8.02;;;;;;;;;;5106614;28;20124;-54
2021/03/23 10:23:51;;;;;;;18.50;8.50;;;;;;;;;;5109002;28;20102;-54
2021/03/23 10:26:18;;;;;;;19.73;7.88;;;;;;;;;;5097643;28;20023;-54
2021/03/23 10:28:49;;;;;;;17.42;7.47;;;;;;;;;;5098398;28;20067;-54
2021/03/23 10:31:16;;;;;;;16.65;6.15;;;;;;;;;;5093772;28;20056;-54
2021/03/23 10:33:42;;;;;;;15.13;6.70;;;;;;;;;;5097887;28;20417;-54
2021/03/23 10:36:10;;;;;;;10.32;3.30;;;;;;;;;;5094801;28;20034;-54
2021/03/23 10:38:40;;;;;;;14.25;5.78;;;;;;;;;;5105525;28;20440;-54
2021/03/23 10:41:18;;;;;;;13.32;5.72;;;;;;;;;;5114276;28;20088;-54
2021/03/23 10:43:45;;;;;;;11.15;4.25;;;;;;;;;;5096874;28;20024;-54
2021/03/23 10:46:26;;;;;;;9.95;4.10;;;;;;;;;;5113997;28;20073;-54
2021/03/23 10:48:52;;;;;;;12.30;4.97;;;;;;;;;;5110158;28;20039;-54
2021/03/23 10:51:21;;;;;;;15.85;6.22;;;;;;;;;;5102438;28;20028;-54
2021/03/23 10:54:00;;;;;;;10.45;5.47;;;;;;;;;;5101818;28;20023;-54
2021/03/23 10:56:33;;;;;;;13.13;5.32;;;;;;;;;;5100914;28;20343;-54
2021/03/23 10:59:13;;;;;;;20.30;5.45;;;;;;;;;;5100252;28;20100;-54
2021/03/23 11:01:58;;;;;;;11.15;4.93;;;;;;;;;;5102122;28;20455;-54
2021/03/23 11:04:24;;;;;;;7.50;3.00;;;;;;;;;;5106260;28;20060;-54
2021/03/23 11:06:50;;;;;;;8.57;4.50;;;;;;;;;;5099629;28;20028;-54
2021/03/23 11:09:17;;;;;;;7.07;4.10;;;;;;;;;;5110244;28;20380;-54
2021/03/23 11:11:43;;;;;;;10.48;4.25;;;;;;;;;;5108671;28;20398;-54
2021/03/23 11:14:09;;;;;;;8.38;3.65;;;;;;;;;;5104062;28;20444;-54
2021/03/23 11:16:36;;;;;;;8.15;3.83;;;;;;;;;;5102009;28;20414;-54
2021/03/23 11:19:03;;;;;;;11.50;4.40;;;;;;;;;;5102206;28;20030;-54
2021/03/23 11:21:35;;;;;;;7.50;3.35;;;;;;;;;;5102796;28;20376;-54
2021/03/23 11:24:01;;;;;;;7.45;3.55;;;;;;;;;;5098160;28;20188;-54
2021/03/23 11:26:29;;;;;;;10.75;3.72;;;;;;;;;;5111259;28;20031;-54
2021/03/23 11:29:01;;;;;;;8.93;3.35;;;;;;;;;;5109857;28;20116;-54
2021/03/23 11:31:28;;;;;;;18.58;4.30;;;;;;;;;;5113751;28;20023;-54
2021/03/23 11:33:56;;;;;;;5.75;3.78;;;;;;;;;;5113276;28;20030;-54
2021/03/23 11:36:22;;;;;;;5.60;3.45;;;;;;;;;;5109221;28;20024;-54
2021/03/23 11:38:48;;;;;;;12.75;5.18;;;;;;;;;;5093064;28;20061;-54
2021/03/23 11:41:23;;;;;;;8.40;3.67;;;;;;;;;;5093283;28;20028;-54
2021/03/23 11:44:03;;;;;;;8.50;4.03;;;;;;;;;;5093117;28;20036;-54
2021/03/23 11:46:47;;;;;;;9.65;4.63;;;;;;;;;;5101464;28;20028;-54
2021/03/23 11:49:23;;;;;;;7.60;3.75;;;;;;;;;;5104713;28;20048;-54
2021/03/23 11:51:49;;;;;;;9.45;4.93;;;;;;;;;;5106994;28;20020;-54
2021/03/23 11:54:15;;;;;;;11.13;4.68;;;;;;;;;;5113384;28;20020;-54
2021/03/23 11:56:41;;;;;;;8.70;4.15;;;;;;;;;;5098402;28;20027;-54
2021/03/23 11:59:08;;;;;;;9.70;3.55;;;;;;;;;;5092884;28;20043;-54
2021/03/23 12:01:34;;;;;;;8.73;4.05;;;;;;;;;;5103498;28;20449;-54
2021/03/23 12:04:00;;;;;;;7.57;4.45;;;;;;;;;;5113408;28;20077;-54
2021/03/23 12:06:30;;;;;;;5.70;2.97;;;;;;;;;;5105584;28;20055;-55
2021/03/23 12:09:01;;;;;;;6.45;3.67;;;;;;;;;;5112558;28;20066;-54
2021/03/23 12:11:46;;;;;;;7.60;3.95;;;;;;;;;;5103254;28;20020;-54
2021/03/23 12:14:17;;;;;;;11.05;3.95;;;;;;;;;;5096846;28;20114;-54
2021/03/23 12:16:57;;;;;;;12.35;4.07;;;;;;;;;;5097843;28;20032;-54
2021/03/23 12:19:24;;;;;;;6.85;4.03;;;;;;;;;;5105211;28;20035;-54
2021/03/23 12:21:51;;;;;;;9.93;4.55;;;;;;;;;;5105062;28;20046;-54
2021/03/23 12:24:17;;;;;;;8.63;3.97;;;;;;;;;;5099431;28;20020;-54
2021/03/23 12:26:44;;;;;;;9.10;4.03;;;;;;;;;;5096526;28;20017;-54
2021/03/23 12:29:10;;;;;;;14.15;4.82;;;;;;;;;;5112285;28;20338;-54
2021/03/23 12:31:36;;;;;;;11.27;4.65;;;;;;;;;;5117122;28;20022;-54
2021/03/23 12:34:02;;;;;;;16.35;5.70;;;;;;;;;;5116628;28;20028;-54
2021/03/23 12:36:28;;;;;;;11.68;4.88;;;;;;;;;;5116498;28;20047;-54
2021/03/23 12:38:54;;;;;;;19.92;4.82;;;;;;;;;;5114830;28;20046;-54
2021/03/23 12:41:26;;;;;;;14.10;4.68;;;;;;;;;;5116761;28;20070;-54
2021/03/23 12:43:52;;;;;;;7.90;3.28;;;;;;;;;;5116450;28;20036;-54
2021/03/23 12:46:19;;;;;;;7.65;4.00;;;;;;;;;;5116602;28;20126;-54
2021/03/23 12:48:45;;;;;;;10.05;4.50;;;;;;;;;;5114398;28;20054;-54
2021/03/23 12:51:23;;;;;;;14.85;4.68;;;;;;;;;;5116424;28;20051;-54
2021/03/23 12:53:50;;;;;;;11.40;4.30;;;;;;;;;;5116573;28;20026;-54
2021/03/23 12:56:16;;;;;;;11.40;5.03;;;;;;;;;;5116738;28;20392;-54
2021/03/23 12:58:45;;;;;;;9.63;4.78;;;;;;;;;;5116113;28;20023;-54
2021/03/23 13:01:11;;;;;;;9.23;4.57;;;;;;;;;;5103756;28;20082;-54
2021/03/23 13:03:37;;;;;;;11.60;3.30;;;;;;;;;;5095628;28;20365;-54
2021/03/23 13:06:04;;;;;;;11.25;3.85;;;;;;;;;;5095692;28;20027;-54
2021/03/23 13:08:31;;;;;;;9.25;3.80;;;;;;;;;;5095520;28;20036;-54
2021/03/23 13:11:05;;;;;;;14.27;4.95;;;;;;;;;;5101343;28;20020;-54
2021/03/23 13:13:35;;;;;;;9.27;4.80;;;;;;;;;;5099574;28;20034;-54
2021/03/23 13:16:01;;;;;;;9.40;4.28;;;;;;;;;;5112629;28;20027;-54
2021/03/23 13:18:30;;;;;;;10.18;4.63;;;;;;;;;;5112555;28;20115;-54
2021/03/23 13:20:58;;;;;;;13.65;4.63;;;;;;;;;;5095384;28;20032;-54
2021/03/23 13:23:39;;;;;;;11.02;5.32;;;;;;;;;;5112784;28;20020;-53
2021/03/23 13:26:05;;;;;;;;;;;;;;;;;;5116351;28;20031;-54
2021/03/23 13:28:40;;;;;;;10.30;4.18;;;;;;;;;;5107296;28;20007;-53
2021/03/23 13:31:06;;;;;;;9.43;4.25;;;;;;;;;;5105658;28;20127;-54
2021/03/23 13:33:35;;;;;;;9.35;4.38;;;;;;;;;;5104196;28;20028;-53
2021/03/23 13:36:06;;;;;;;6.50;3.27;;;;;;;;;;5098033;28;20365;-54
2021/03/23 13:38:32;;;;;;;12.77;4.70;;;;;;;;;;5095189;28;20499;-53
2021/03/23 13:40:58;;;;;;;7.82;4.45;;;;;;;;;;5095217;28;20036;-53
2021/03/23 13:43:26;;;;;;;6.88;4.05;;;;;;;;;;5095078;28;20474;-54
2021/03/23 13:45:52;;;;;;;9.45;4.32;;;;;;;;;;5102905;28;20028;-53
2021/03/23 13:48:23;;;;;;;13.15;4.20;;;;;;;;;;5111867;28;20036;-54
2021/03/23 13:50:50;;;;;;;7.05;3.33;;;;;;;;;;5115418;28;20027;-54
2021/03/23 13:53:18;;;;;;;11.98;4.88;;;;;;;;;;5109009;28;20039;-53
2021/03/23 13:55:45;;;;;;;11.32;4.70;;;;;;;;;;5106091;28;20023;-53
2021/03/23 13:58:12;;;;;;;11.07;3.67;;;;;;;;;;5108637;28;20110;-54
2021/03/23 14:00:39;;;;;;;12.07;4.22;;;;;;;;;;5102150;28;20350;-53
2021/03/23 14:03:05;;;;;;;11.48;4.20;;;;;;;;;;5094657;28;20111;-53
2021/03/23 14:05:32;;;;;;;16.60;4.32;;;;;;;;;;5101856;28;20087;-53
2021/03/23 14:08:00;;;;;;;16.80;6.10;;;;;;;;;;5098608;28;20039;-54
2021/03/23 14:10:28;;;;;;;12.38;5.63;;;;;;;;;;5099142;28;20034;-53
2021/03/23 14:12:56;;;;;;;12.32;5.03;;;;;;;;;;5100533;28;20035;-53
2021/03/23 14:15:24;;;;;;;10.10;4.65;;;;;;;;;;5096834;28;20036;-54
2021/03/23 14:17:50;;;;;;;8.82;4.63;;;;;;;;;;5094189;28;20020;-54
2021/03/23 14:20:18;;;;;;;9.02;4.85;;;;;;;;;;5093159;28;20028;-53
2021/03/23 14:22:45;;;;;;;12.55;5.60;;;;;;;;;;5103745;28;20051;-54
2021/03/23 14:25:23;;;;;;;13.27;5.10;;;;;;;;;;5109534;28;20453;-53
2021/03/23 14:27:49;;;;;;;10.20;5.32;;;;;;;;;;5093720;28;20135;-53
2021/03/23 14:30:16;;;;;;;11.57;5.00;;;;;;;;;;5106243;28;20031;-53
2021/03/23 14:32:42;;;;;;;13.45;5.32;;;;;;;;;;5113934;28;20106;-54
2021/03/23 14:35:08;;;;;;;12.48;4.72;;;;;;;;;;5114115;28;20028;-53
2021/03/23 14:37:35;;;;;;;10.45;5.35;;;;;;;;;;5114098;28;20027;-54
2021/03/23 14:40:02;;;;;;;11.77;5.32;;;;;;;;;;5111113;28;20024;-53
2021/03/23 14:42:28;;;;;;;9.85;4.47;;;;;;;;;;5111210;27;20035;-54
2021/03/23 14:44:54;;;;;;;11.60;5.72;;;;;;;;;;5114376;28;20026;-53